createdAt,value
2018-10-17T00:00:06.656Z,24.60
2018-10-17T00:02:34.816Z,21.03
2018-10-17T00:05:03.011Z,25.47
2018-10-17T00:07:31.096Z,22.63
2018-10-17T00:09:59.278Z,23.13
2018-10-17T00:12:27.416Z,29.67
2018-10-17T00:14:55.661Z,25.33
2018-10-17T00:17:23.845Z,25.40
2018-10-17T00:19:52.020Z,29.43
2018-10-17T00:22:20.176Z,22.90
2018-10-17T00:24:48.316Z,24.03
2018-10-17T00:27:16.481Z,24.50
2018-10-17T00:29:44.682Z,29.57
2018-10-17T00:32:12.852Z,29.70
2018-10-17T00:34:41.013Z,26.80
2018-10-17T00:37:09.262Z,25.83
2018-10-17T00:39:37.325Z,25.40
2018-10-17T00:42:05.607Z,30.60
2018-10-17T00:44:33.768Z,32.90
2018-10-17T00:47:01.956Z,27.93
2018-10-17T00:49:30.117Z,34.37
2018-10-17T00:51:58.264Z,23.27
2018-10-17T00:54:26.445Z,30.70
2018-10-17T00:56:54.621Z,25.17
2018-10-17T00:59:22.758Z,31.12
2018-10-17T01:01:50.912Z,24.33
2018-10-17T01:04:19.088Z,27.13
2018-10-17T01:06:47.279Z,36.90
2018-10-17T01:09:15.664Z,31.87
2018-10-17T01:11:43.840Z,25.53
2018-10-17T01:14:12.107Z,36.77
2018-10-17T01:16:40.264Z,31.23
2018-10-17T01:19:08.523Z,32.07
2018-10-17T01:21:37.024Z,22.17
2018-10-17T01:24:05.434Z,22.67
2018-10-17T01:26:33.696Z,24.60
2018-10-17T01:29:01.891Z,26.53
2018-10-17T01:31:30.423Z,27.83
2018-10-17T01:33:58.585Z,28.37
2018-10-17T01:36:26.743Z,27.87
2018-10-17T01:38:54.890Z,30.90
2018-10-17T01:41:23.013Z,24.60
2018-10-17T01:43:51.201Z,25.40
2018-10-17T01:46:19.356Z,24.33
2018-10-17T01:48:47.578Z,25.63
2018-10-17T01:51:15.760Z,34.83
2018-10-17T01:53:43.978Z,27.07
2018-10-17T01:56:12.136Z,26.47
2018-10-17T01:58:40.287Z,26.20
2018-10-17T02:01:08.527Z,32.07
2018-10-17T02:03:36.673Z,25.47
2018-10-17T02:06:06.023Z,29.93
2018-10-17T02:08:34.221Z,24.20
2018-10-17T02:11:02.426Z,30.77
2018-10-17T02:13:30.529Z,29.27
2018-10-17T02:15:58.827Z,28.53
2018-10-17T02:18:27.002Z,27.70
2018-10-17T02:20:55.690Z,23.47
2018-10-17T02:23:23.841Z,23.00
2018-10-17T02:25:52.534Z,27.10
2018-10-17T02:28:20.672Z,28.33
2018-10-17T02:30:48.860Z,24.97
2018-10-17T02:33:17.029Z,23.17
2018-10-17T02:35:45.185Z,30.23
2018-10-17T02:38:13.673Z,25.20
2018-10-17T02:40:41.829Z,24.83
2018-10-17T02:43:10.115Z,28.93
2018-10-17T02:45:38.186Z,27.80
2018-10-17T02:48:06.341Z,26.00
2018-10-17T02:50:34.546Z,31.07
2018-10-17T02:53:02.737Z,22.10
2018-10-17T02:55:30.880Z,30.30
2018-10-17T02:57:59.048Z,25.33
2018-10-17T03:00:27.188Z,32.87
2018-10-17T03:02:55.384Z,25.23
2018-10-17T03:05:23.537Z,24.97
2018-10-17T03:07:51.704Z,25.07
2018-10-17T03:10:19.867Z,21.47
2018-10-17T03:12:48.016Z,26.60
2018-10-17T03:15:16.172Z,23.90
2018-10-17T03:17:44.363Z,42.70
2018-10-17T03:20:12.540Z,25.00
2018-10-17T03:22:40.880Z,20.10
2018-10-17T03:25:09.763Z,28.53
2018-10-17T03:27:37.981Z,23.03
2018-10-17T03:30:06.310Z,26.53
2018-10-17T03:32:34.476Z,31.63
2018-10-17T03:35:02.682Z,24.83
2018-10-17T03:37:30.817Z,22.70
2018-10-17T03:39:59.078Z,29.80
2018-10-17T03:42:27.225Z,25.83
2018-10-17T03:44:55.393Z,24.20
2018-10-17T03:47:23.523Z,28.47
2018-10-17T03:49:51.761Z,29.50
2018-10-17T03:52:19.832Z,24.40
2018-10-17T03:54:48.000Z,25.17
2018-10-17T03:57:16.192Z,30.53
2018-10-17T03:59:44.483Z,22.50
2018-10-17T04:02:12.557Z,25.40
2018-10-17T04:04:40.740Z,24.20
2018-10-17T04:07:08.922Z,33.53
2018-10-17T04:09:37.059Z,28.07
2018-10-17T04:12:05.265Z,30.50
2018-10-17T04:14:33.457Z,32.90
2018-10-17T04:17:01.688Z,37.23
2018-10-17T04:19:30.012Z,28.25
2018-10-17T04:21:58.389Z,25.77
2018-10-17T04:24:26.569Z,27.47
2018-10-17T04:26:54.749Z,27.30
2018-10-17T04:29:22.935Z,26.27
2018-10-17T04:31:51.069Z,23.53
2018-10-17T04:34:19.264Z,27.70
2018-10-17T04:36:47.481Z,33.77
2018-10-17T04:39:15.651Z,27.47
2018-10-17T04:41:43.880Z,34.00
2018-10-17T04:44:12.082Z,27.63
2018-10-17T04:46:40.285Z,26.80
2018-10-17T04:49:09.211Z,35.20
2018-10-17T04:51:37.290Z,29.20
2018-10-17T04:54:06.082Z,31.43
2018-10-17T04:56:34.225Z,26.33
2018-10-17T04:59:02.455Z,24.53
2018-10-17T05:01:30.589Z,27.43
2018-10-17T05:03:58.773Z,29.70
2018-10-17T05:06:26.908Z,29.90
2018-10-17T05:08:55.090Z,37.83
2018-10-17T05:11:23.237Z,35.00
2018-10-17T05:13:52.289Z,28.60
2018-10-17T05:16:20.705Z,26.50
2018-10-17T05:18:48.911Z,37.37
2018-10-17T05:21:17.084Z,34.33
2018-10-17T05:23:45.334Z,29.40
2018-10-17T05:26:13.501Z,29.80
2018-10-17T05:28:41.703Z,29.53
2018-10-17T05:31:10.741Z,30.77
2018-10-17T05:33:38.942Z,32.07
2018-10-17T05:36:07.101Z,34.07
2018-10-17T05:38:35.271Z,31.63
2018-10-17T05:41:03.411Z,45.23
2018-10-17T05:43:31.560Z,40.23
2018-10-17T05:45:59.917Z,31.80
2018-10-17T05:48:28.114Z,26.73
2018-10-17T05:50:56.317Z,28.43
2018-10-17T05:53:24.507Z,54.10
2018-10-17T05:55:52.716Z,28.27
2018-10-17T05:58:20.912Z,37.10
2018-10-17T06:00:49.130Z,25.30
2018-10-17T06:03:17.328Z,34.17
2018-10-17T06:05:45.502Z,26.53
2018-10-17T06:08:13.774Z,45.80
2018-10-17T06:10:41.952Z,27.67
2018-10-17T06:13:10.202Z,28.50
2018-10-17T06:15:38.285Z,32.00
2018-10-17T06:18:06.447Z,32.83
2018-10-17T06:20:34.613Z,29.27
2018-10-17T06:23:02.929Z,26.37
2018-10-17T06:25:31.018Z,28.30
2018-10-17T06:27:59.204Z,34.83
2018-10-17T06:30:27.442Z,36.13
2018-10-17T06:32:55.548Z,29.20
2018-10-17T06:35:23.781Z,121.13
2018-10-17T06:37:51.965Z,80.50
2018-10-17T06:40:20.129Z,174.10
2018-10-17T06:42:48.365Z,53.73
2018-10-17T06:45:16.655Z,345.33
2018-10-17T06:47:44.851Z,177.73
2018-10-17T06:50:13.034Z,142.30
2018-10-17T06:52:41.223Z,68.07
2018-10-17T06:55:09.492Z,50.33
2018-10-17T06:57:37.605Z,29.63
2018-10-17T07:00:07.555Z,54.90
2018-10-17T07:02:35.676Z,28.53
2018-10-17T07:05:04.019Z,27.50
2018-10-17T07:07:32.177Z,30.33
2018-10-17T07:10:00.366Z,28.90
2018-10-17T07:12:28.519Z,28.30
2018-10-17T07:14:56.677Z,26.50
2018-10-17T07:17:24.854Z,32.27
2018-10-17T07:19:53.090Z,29.80
2018-10-17T07:22:21.263Z,29.60
2018-10-17T07:24:49.440Z,29.20
2018-10-17T07:27:17.824Z,32.93
2018-10-17T07:29:46.296Z,27.03
2018-10-17T07:32:14.293Z,35.33
2018-10-17T07:34:42.524Z,26.57
2018-10-17T07:37:10.716Z,26.50
2018-10-17T07:39:38.888Z,54.73
2018-10-17T07:42:07.228Z,36.53
2018-10-17T07:44:35.345Z,29.90
2018-10-17T07:47:03.513Z,30.27
2018-10-17T07:49:31.720Z,29.50
2018-10-17T07:52:00.213Z,45.77
2018-10-17T07:54:28.369Z,35.37
2018-10-17T07:56:56.532Z,27.23
2018-10-17T07:59:24.738Z,38.33
2018-10-17T08:01:52.892Z,31.03
2018-10-17T08:04:21.145Z,32.03
2018-10-17T08:06:49.315Z,41.33
2018-10-17T08:09:17.526Z,29.60
2018-10-17T08:11:45.780Z,26.50
2018-10-17T08:14:14.045Z,27.53
2018-10-17T08:16:45.401Z,30.23
2018-10-17T08:19:13.764Z,33.77
2018-10-17T08:21:41.944Z,29.83
2018-10-17T08:24:10.185Z,32.30
2018-10-17T08:26:38.347Z,38.57
2018-10-17T08:29:06.510Z,28.90
2018-10-17T08:31:34.764Z,30.73
2018-10-17T08:34:03.048Z,31.10
2018-10-17T08:36:31.440Z,28.10
2018-10-17T08:38:59.349Z,36.70
2018-10-17T08:41:27.521Z,44.47
2018-10-17T08:43:55.718Z,34.63
2018-10-17T08:46:23.924Z,36.20
2018-10-17T08:48:52.101Z,32.27
2018-10-17T08:51:20.243Z,38.07
2018-10-17T08:53:48.411Z,28.93
2018-10-17T08:56:16.786Z,35.57
2018-10-17T08:58:44.820Z,40.33
2018-10-17T09:01:13.933Z,31.80
2018-10-17T09:03:42.097Z,32.23
2018-10-17T09:06:10.347Z,41.53
2018-10-17T09:08:38.429Z,50.83
2018-10-17T09:11:06.664Z,30.27
2018-10-17T09:13:34.991Z,29.00
2018-10-17T09:16:03.116Z,36.80
2018-10-17T09:18:31.228Z,34.20
2018-10-17T09:20:59.877Z,41.50
2018-10-17T09:23:27.627Z,31.93
2018-10-17T09:25:55.804Z,33.70
2018-10-17T09:28:23.958Z,37.87
2018-10-17T09:30:52.113Z,34.80
2018-10-17T09:33:20.324Z,32.37
2018-10-17T09:35:48.584Z,37.07
2018-10-17T09:38:16.721Z,43.57
2018-10-17T09:40:44.923Z,34.27
2018-10-17T09:43:13.936Z,41.93
2018-10-17T09:45:42.062Z,35.80
2018-10-17T09:48:10.213Z,49.00
2018-10-17T09:50:38.383Z,36.97
2018-10-17T09:53:06.622Z,36.47
2018-10-17T09:55:34.829Z,47.43
2018-10-17T09:58:03.139Z,38.70
2018-10-17T10:00:36.615Z,44.80
2018-10-17T10:03:05.810Z,37.37
2018-10-17T10:05:34.045Z,44.80
2018-10-17T10:08:02.230Z,32.73
2018-10-17T10:10:30.405Z,37.13
2018-10-17T10:12:58.552Z,37.93
2018-10-17T10:15:26.723Z,40.80
2018-10-17T10:17:54.906Z,42.37
2018-10-17T10:20:23.079Z,48.00
2018-10-17T10:22:51.372Z,49.10
2018-10-17T10:25:19.580Z,41.97
2018-10-17T10:27:47.705Z,36.83
2018-10-17T10:30:15.880Z,35.60
2018-10-17T10:32:44.140Z,48.20
2018-10-17T10:35:12.300Z,34.30
2018-10-17T10:37:40.470Z,36.23
2018-10-17T10:40:08.762Z,38.67
2018-10-17T10:42:36.821Z,29.63
2018-10-17T10:45:05.970Z,31.30
2018-10-17T10:47:34.161Z,39.10
2018-10-17T10:50:02.372Z,34.30
2018-10-17T10:52:30.506Z,31.70
2018-10-17T10:54:58.665Z,32.47
2018-10-17T10:57:26.841Z,28.27
2018-10-17T10:59:55.069Z,30.10
2018-10-17T11:02:23.303Z,38.60
2018-10-17T11:04:51.583Z,34.80
2018-10-17T11:07:19.648Z,31.37
2018-10-17T11:09:47.825Z,36.13
2018-10-17T11:12:16.020Z,26.70
2018-10-17T11:14:44.300Z,27.17
2018-10-17T11:17:12.396Z,32.90
2018-10-17T11:19:40.516Z,37.33
2018-10-17T11:22:08.704Z,23.80
2018-10-17T11:24:36.958Z,28.60
2018-10-17T11:27:05.328Z,23.17
2018-10-17T11:29:33.432Z,22.17
2018-10-17T11:32:01.691Z,28.33
2018-10-17T11:34:29.872Z,33.27
2018-10-17T11:36:58.171Z,22.57
2018-10-17T11:39:26.422Z,25.40
2018-10-17T11:41:54.665Z,24.53
2018-10-17T11:44:22.870Z,25.90
2018-10-17T11:46:51.076Z,26.23
2018-10-17T11:49:19.225Z,23.37
2018-10-17T11:51:47.419Z,38.50
2018-10-17T11:54:15.598Z,26.50
2018-10-17T11:56:43.868Z,24.80
2018-10-17T11:59:12.128Z,36.17
2018-10-17T12:01:40.378Z,21.73
2018-10-17T12:04:08.730Z,20.87
2018-10-17T12:06:36.870Z,24.77
2018-10-17T12:09:07.146Z,26.07
2018-10-17T12:11:35.307Z,23.50
2018-10-17T12:14:03.434Z,29.73
2018-10-17T12:16:31.809Z,22.93
2018-10-17T12:18:59.975Z,23.30
2018-10-17T12:21:28.187Z,22.03
2018-10-17T12:23:56.402Z,23.63
2018-10-17T12:26:24.565Z,27.37
2018-10-17T12:28:52.723Z,32.53
2018-10-17T12:31:20.893Z,25.10
2018-10-17T12:33:49.117Z,22.87
2018-10-17T12:36:17.303Z,18.73
2018-10-17T12:38:45.475Z,17.23
2018-10-17T12:41:13.665Z,18.47
2018-10-17T12:43:41.834Z,24.03
2018-10-17T12:46:10.009Z,18.03
2018-10-17T12:48:38.164Z,35.20
2018-10-17T12:51:06.322Z,23.67
2018-10-17T12:53:34.496Z,17.60
2018-10-17T12:56:02.626Z,24.43
2018-10-17T12:58:30.780Z,24.20
2018-10-17T13:00:58.995Z,27.27
2018-10-17T13:03:27.112Z,21.10
2018-10-17T13:05:55.367Z,23.57
2018-10-17T13:08:23.525Z,25.10
2018-10-17T13:10:51.782Z,27.60
2018-10-17T13:13:19.866Z,22.50
2018-10-17T13:15:48.023Z,32.77
2018-10-17T13:18:16.206Z,20.63
2018-10-17T13:20:44.375Z,33.93
2018-10-17T13:23:12.683Z,29.03
2018-10-17T13:25:40.905Z,25.60
2018-10-17T13:28:09.074Z,28.97
2018-10-17T13:30:37.281Z,21.30
2018-10-17T13:33:05.469Z,24.03
2018-10-17T13:35:33.661Z,24.57
2018-10-17T13:38:01.904Z,29.97
2018-10-17T13:40:30.109Z,42.47
2018-10-17T13:42:58.398Z,19.77
2018-10-17T13:45:26.530Z,22.93
2018-10-17T13:47:54.847Z,34.67
2018-10-17T13:50:22.988Z,20.53
2018-10-17T13:52:51.179Z,31.83
2018-10-17T13:55:19.354Z,23.57
2018-10-17T13:57:47.502Z,24.40
2018-10-17T14:00:15.553Z,18.93
2018-10-17T14:02:44.281Z,27.33
2018-10-17T14:05:12.498Z,16.60
2018-10-17T14:07:40.669Z,27.07
2018-10-17T14:10:08.825Z,32.57
2018-10-17T14:12:37.115Z,18.27
2018-10-17T14:15:05.555Z,19.17
2018-10-17T14:17:33.655Z,38.83
2018-10-17T14:20:01.830Z,23.17
2018-10-17T14:22:29.977Z,25.20
2018-10-17T14:24:58.296Z,24.50
2018-10-17T14:27:26.472Z,26.67
2018-10-17T14:29:54.639Z,24.47
2018-10-17T14:32:22.808Z,29.83
2018-10-17T14:34:51.028Z,24.70
2018-10-17T14:37:19.212Z,21.33
2018-10-17T14:39:47.349Z,25.10
2018-10-17T14:42:15.784Z,31.53
2018-10-17T14:44:43.913Z,27.17
2018-10-17T14:47:12.092Z,24.53
2018-10-17T14:49:41.025Z,32.50
2018-10-17T14:52:09.219Z,41.47
2018-10-17T14:54:37.374Z,26.23
2018-10-17T14:57:05.825Z,23.73
2018-10-17T14:59:33.929Z,34.03
2018-10-17T15:02:02.161Z,25.03
2018-10-17T15:04:30.304Z,39.67
2018-10-17T15:06:58.492Z,29.40
2018-10-17T15:09:26.682Z,33.67
2018-10-17T15:11:55.027Z,24.53
2018-10-17T15:14:23.130Z,18.43
2018-10-17T15:16:51.301Z,23.70
2018-10-17T15:19:19.557Z,21.13
2018-10-17T15:21:47.748Z,33.47
2018-10-17T15:24:16.033Z,32.83
2018-10-17T15:26:44.157Z,25.80
2018-10-17T15:29:12.324Z,20.10
2018-10-17T15:31:40.492Z,27.17
2018-10-17T15:34:08.695Z,30.77
2018-10-17T15:36:36.858Z,26.03
2018-10-17T15:39:07.382Z,24.50
2018-10-17T15:41:35.476Z,28.13
2018-10-17T15:44:03.706Z,29.90
2018-10-17T15:46:31.899Z,24.73
2018-10-17T15:49:00.147Z,30.37
2018-10-17T15:51:28.340Z,30.63
2018-10-17T15:53:56.609Z,29.30
2018-10-17T15:56:25.021Z,27.87
2018-10-17T15:58:53.153Z,23.10
2018-10-17T16:01:21.291Z,29.67
2018-10-17T16:03:49.482Z,35.80
2018-10-17T16:06:17.797Z,26.77
2018-10-17T16:08:45.844Z,26.30
2018-10-17T16:11:14.005Z,37.23
2018-10-17T16:13:42.149Z,32.43
2018-10-17T16:16:10.324Z,31.00
2018-10-17T16:18:38.502Z,38.30
2018-10-17T16:21:06.711Z,34.37
2018-10-17T16:23:34.869Z,27.00
2018-10-17T16:26:03.187Z,28.83
2018-10-17T16:28:31.288Z,39.97
2018-10-17T16:31:06.122Z,27.00
2018-10-17T16:33:34.232Z,33.57
2018-10-17T16:36:03.295Z,32.93
2018-10-17T16:38:31.485Z,35.93
2018-10-17T16:40:59.718Z,34.07
2018-10-17T16:43:27.835Z,38.97
2018-10-17T16:45:56.287Z,48.27
2018-10-17T16:48:24.424Z,28.60
2018-10-17T16:50:52.634Z,43.60
2018-10-17T16:53:20.737Z,29.27
2018-10-17T16:55:48.909Z,31.23
2018-10-17T16:58:17.150Z,30.50
2018-10-17T17:00:45.312Z,35.83
2018-10-17T17:03:13.538Z,31.20
2018-10-17T17:05:41.629Z,36.63
2018-10-17T17:08:09.809Z,42.07
2018-10-17T17:10:37.977Z,42.67
2018-10-17T17:13:06.131Z,39.97
2018-10-17T17:15:34.360Z,41.33
2018-10-17T17:18:02.822Z,32.90
2018-10-17T17:20:31.046Z,47.10
2018-10-17T17:22:59.298Z,40.97
2018-10-17T17:25:27.453Z,58.93
2018-10-17T17:27:55.659Z,53.00
2018-10-17T17:30:23.934Z,45.87
2018-10-17T17:32:52.124Z,50.90
2018-10-17T17:37:48.567Z,49.37
2018-10-17T17:40:16.729Z,44.17
2018-10-17T17:42:44.864Z,51.43
2018-10-17T17:45:13.173Z,64.77
2018-10-17T17:47:41.345Z,65.63
2018-10-17T17:50:09.882Z,52.60
2018-10-17T17:52:38.078Z,52.47
2018-10-17T17:55:07.381Z,55.77
2018-10-17T17:57:35.556Z,52.80
2018-10-17T18:00:03.792Z,69.90
2018-10-17T18:02:31.961Z,56.77
2018-10-17T18:05:00.133Z,63.23
2018-10-17T18:07:28.282Z,63.77
2018-10-17T18:09:56.576Z,64.00
2018-10-17T18:12:24.774Z,62.93
2018-10-17T18:14:52.970Z,68.43
2018-10-17T18:17:21.133Z,72.77
2018-10-17T18:19:49.329Z,69.43
2018-10-17T18:22:17.586Z,80.50
2018-10-17T18:24:45.805Z,72.00
2018-10-17T18:27:14.045Z,76.43
2018-10-17T18:29:42.443Z,64.33
2018-10-17T18:32:10.873Z,79.23
2018-10-17T18:34:39.216Z,77.83
2018-10-17T18:37:07.577Z,79.10
2018-10-17T18:39:35.936Z,92.00
2018-10-17T18:42:04.401Z,93.47
2018-10-17T18:44:32.616Z,97.93
2018-10-17T18:47:00.853Z,89.50
2018-10-17T18:49:29.065Z,82.37
2018-10-17T18:51:57.217Z,99.80
2018-10-17T18:54:25.412Z,92.00
2018-10-17T18:56:53.618Z,92.63
2018-10-17T18:59:21.776Z,92.33
2018-10-17T19:01:50.043Z,79.83
2018-10-17T19:04:18.232Z,88.30
2018-10-17T19:06:46.378Z,79.73
2018-10-17T19:09:14.889Z,96.30
2018-10-17T19:11:43.052Z,109.97
2018-10-17T19:14:11.273Z,100.93
2018-10-17T19:16:39.447Z,89.90
2018-10-17T19:19:07.603Z,99.03
2018-10-17T19:21:35.929Z,90.17
2018-10-17T19:24:04.301Z,92.50
2018-10-17T19:26:32.461Z,91.67
2018-10-17T19:29:00.593Z,87.23
2018-10-17T19:31:28.867Z,111.73
2018-10-17T19:33:57.008Z,113.27
2018-10-17T19:36:25.184Z,102.60
2018-10-17T19:38:53.471Z,105.80
2018-10-17T19:41:21.612Z,103.27
2018-10-17T19:43:49.789Z,100.97
2018-10-17T19:46:17.965Z,98.20
2018-10-17T19:48:46.134Z,102.57
2018-10-17T19:51:14.379Z,99.40
2018-10-17T19:53:42.477Z,101.00
2018-10-17T19:56:10.612Z,104.30
2018-10-17T19:58:38.782Z,95.87
2018-10-17T20:01:06.933Z,118.40
2018-10-17T20:03:35.104Z,104.27
2018-10-17T20:06:03.263Z,106.97
2018-10-17T20:08:31.473Z,113.27
2018-10-17T20:10:59.677Z,108.33
2018-10-17T20:13:27.833Z,117.30
2018-10-17T20:15:56.017Z,112.10
2018-10-17T20:18:24.820Z,118.80
2018-10-17T20:20:53.142Z,114.43
2018-10-17T20:23:21.523Z,112.97
2018-10-17T20:25:49.692Z,121.73
2018-10-17T20:28:17.890Z,112.27
2018-10-17T20:30:46.057Z,112.07
2018-10-17T20:33:14.534Z,117.40
2018-10-17T20:35:42.556Z,117.53
2018-10-17T20:38:10.744Z,123.70
2018-10-17T20:40:38.962Z,116.30
2018-10-17T20:43:07.117Z,118.73
2018-10-17T20:45:35.273Z,110.87
2018-10-17T20:48:03.468Z,115.47
2018-10-17T20:50:31.654Z,109.47
2018-10-17T20:52:59.841Z,129.23
2018-10-17T20:55:28.006Z,126.63
2018-10-17T20:57:56.273Z,104.93
2018-10-17T21:00:24.409Z,132.20
2018-10-17T21:02:52.588Z,118.90
2018-10-17T21:05:20.756Z,133.33
2018-10-17T21:07:49.029Z,132.53
2018-10-17T21:10:17.236Z,131.90
2018-10-17T21:12:45.523Z,113.00
2018-10-17T21:15:13.762Z,123.53
2018-10-17T21:17:42.008Z,142.27
2018-10-17T21:20:10.222Z,133.03
2018-10-17T21:22:38.436Z,124.43
2018-10-17T21:25:06.664Z,120.67
2018-10-17T21:27:35.053Z,130.57
2018-10-17T21:30:03.390Z,120.63
2018-10-17T21:32:31.556Z,133.23
2018-10-17T21:34:59.721Z,116.20
2018-10-17T21:37:27.938Z,117.20
2018-10-17T21:39:56.188Z,114.70
2018-10-17T21:42:24.361Z,136.63
2018-10-17T21:44:52.529Z,117.53
2018-10-17T21:47:20.769Z,111.37
2018-10-17T21:49:49.124Z,121.87
2018-10-17T21:52:17.293Z,124.43
2018-10-17T21:54:45.465Z,131.67
2018-10-17T21:57:13.622Z,123.50
2018-10-17T21:59:41.861Z,124.07
2018-10-17T22:02:10.059Z,136.13
2018-10-17T22:04:38.191Z,129.80
2018-10-17T22:07:07.204Z,124.97
2018-10-17T22:09:35.420Z,142.33
2018-10-17T22:12:03.548Z,133.47
2018-10-17T22:14:31.709Z,117.07
2018-10-17T22:17:05.301Z,132.23
2018-10-17T22:19:34.114Z,128.93
2018-10-17T22:22:02.246Z,145.03
2018-10-17T22:24:30.463Z,125.87
2018-10-17T22:26:58.633Z,142.53
2018-10-17T22:29:26.773Z,134.70
2018-10-17T22:31:54.967Z,121.70
2018-10-17T22:34:23.128Z,129.23
2018-10-17T22:36:51.320Z,132.97
2018-10-17T22:39:19.501Z,119.20
2018-10-17T22:41:47.694Z,118.30
2018-10-17T22:44:15.942Z,127.93
2018-10-17T22:46:44.067Z,132.87
2018-10-17T22:49:12.232Z,128.63
2018-10-17T22:51:40.570Z,121.50
2018-10-17T22:54:08.847Z,135.20
2018-10-17T22:56:37.833Z,118.57
2018-10-17T22:59:06.276Z,128.60
2018-10-17T23:01:34.830Z,120.73
2018-10-17T23:04:03.025Z,113.23
2018-10-17T23:06:31.191Z,117.53
2018-10-17T23:08:59.362Z,126.17
2018-10-17T23:11:27.520Z,120.77
2018-10-17T23:13:55.708Z,124.10
2018-10-17T23:16:23.853Z,120.93
2018-10-17T23:18:52.027Z,116.30
2018-10-17T23:21:20.190Z,125.57
2018-10-17T23:23:48.440Z,132.00
2018-10-17T23:26:16.678Z,115.50
2018-10-17T23:28:44.789Z,124.03
2018-10-17T23:31:12.956Z,112.63
2018-10-17T23:33:41.100Z,118.10
2018-10-17T23:36:09.248Z,127.17
2018-10-17T23:38:37.514Z,152.50
2018-10-17T23:41:05.845Z,146.13
2018-10-17T23:43:34.000Z,106.40
2018-10-17T23:46:02.134Z,131.27
2018-10-17T23:48:30.305Z,140.60
2018-10-17T23:50:58.458Z,118.93
2018-10-17T23:53:26.614Z,129.10
2018-10-17T23:55:54.823Z,125.57
2018-10-17T23:58:22.941Z,131.50
